Elmira, Illinois
Current Conditions -  °F | °C
As of 12:35 AM on Monday 24 Nov 2014 (Local Time) from KC75 Reporting Station
Moderate Rain Moderate Rain  
Wind Chill: 46°   Ceiling: 100
Heat Index: 48°   Visibility: 2.5mi
Dew Point: 47°   Wind: 5mph
Humidity: 97%   Direction: 220°SW
Pressure: 29.12"   Gusts: NA
Location:  41.1043°N, 89.8577°W
Report Text: KC75 240635Z AUTO 22004KT 2 1/2SM RA OVC001 09/09 A2912 RMK AO2 LTG DSNT S P0002 T00900085
Loading
Personal Weather Stations






























Interactive Weather Map New forecast layout! Learn more

10-Day Weather Forecast

Advertisements
Track Severe Weather on mobile